sensor_id;sensor_type;location;lat;lon;timestamp;pressure;altitude;pressure_sealevel;temperature;humidity
36630;BME280;36256;42.154;23.002;2024-01-25T00:00:11;97859.94;;;2.10;100.00
36630;BME280;36256;42.154;23.002;2024-01-25T00:02:40;97869.44;;;2.09;100.00
36630;BME280;36256;42.154;23.002;2024-01-25T00:05:07;97875.44;;;2.21;100.00
36630;BME280;36256;42.154;23.002;2024-01-25T00:07:34;97875.06;;;2.26;100.00
36630;BME280;36256;42.154;23.002;2024-01-25T00:10:01;97871.16;;;2.31;100.00
36630;BME280;36256;42.154;23.002;2024-01-25T00:12:27;97859.31;;;2.37;100.00
36630;BME280;36256;42.154;23.002;2024-01-25T00:14:54;97854.94;;;2.29;100.00
36630;BME280;36256;42.154;23.002;2024-01-25T00:17:21;97856.94;;;2.36;100.00
36630;BME280;36256;42.154;23.002;2024-01-25T00:19:48;97851.34;;;2.25;100.00
36630;BME280;36256;42.154;23.002;2024-01-25T00:22:16;97858.59;;;2.48;100.00
36630;BME280;36256;42.154;23.002;2024-01-25T00:24:42;97863.41;;;2.61;100.00
36630;BME280;36256;42.154;23.002;2024-01-25T00:27:09;97868.22;;;2.71;100.00
36630;BME280;36256;42.154;23.002;2024-01-25T00:29:36;97864.28;;;2.76;100.00
36630;BME280;36256;42.154;23.002;2024-01-25T00:32:03;97870.63;;;2.80;100.00
36630;BME280;36256;42.154;23.002;2024-01-25T00:34:30;97874.97;;;2.77;100.00
36630;BME280;36256;42.154;23.002;2024-01-25T00:36:57;97878.53;;;2.81;100.00
36630;BME280;36256;42.154;23.002;2024-01-25T00:39:24;97885.66;;;2.75;100.00
36630;BME280;36256;42.154;23.002;2024-01-25T00:41:51;97839.25;;;2.58;100.00
36630;BME280;36256;42.154;23.002;2024-01-25T00:44:18;97855.06;;;2.54;100.00
36630;BME280;36256;42.154;23.002;2024-01-25T00:46:45;97861.75;;;2.46;100.00
36630;BME280;36256;42.154;23.002;2024-01-25T00:49:14;97861.69;;;2.32;100.00
36630;BME280;36256;42.154;23.002;2024-01-25T00:51:45;97863.19;;;2.22;100.00
36630;BME280;36256;42.154;23.002;2024-01-25T00:54:14;97862.44;;;2.29;100.00
36630;BME280;36256;42.154;23.002;2024-01-25T00:56:41;97860.94;;;2.42;100.00
36630;BME280;36256;42.154;23.002;2024-01-25T00:59:08;97840.34;;;2.43;100.00
36630;BME280;36256;42.154;23.002;2024-01-25T01:01:35;97837.59;;;2.43;100.00
36630;BME280;36256;42.154;23.002;2024-01-25T01:04:02;97813.81;;;2.35;100.00
36630;BME280;36256;42.154;23.002;2024-01-25T01:06:29;97843.88;;;2.33;100.00
36630;BME280;36256;42.154;23.002;2024-01-25T01:08:56;97840.28;;;2.29;100.00
36630;BME280;36256;42.154;23.002;2024-01-25T01:11:23;97836.28;;;2.23;100.00
36630;BME280;36256;42.154;23.002;2024-01-25T01:13:50;97852.91;;;2.23;100.00
36630;BME280;36256;42.154;23.002;2024-01-25T01:16:17;97848.19;;;2.27;100.00
36630;BME280;36256;42.154;23.002;2024-01-25T01:18:46;97826.78;;;2.24;100.00
36630;BME280;36256;42.154;23.002;2024-01-25T01:21:13;97831.56;;;2.27;100.00
36630;BME280;36256;42.154;23.002;2024-01-25T01:23:40;97835.19;;;2.38;100.00
36630;BME280;36256;42.154;23.002;2024-01-25T01:26:07;97815.75;;;2.31;100.00
36630;BME280;36256;42.154;23.002;2024-01-25T01:28:34;97820.59;;;2.45;100.00
36630;BME280;36256;42.154;23.002;2024-01-25T01:31:00;97827.34;;;2.51;100.00
36630;BME280;36256;42.154;23.002;2024-01-25T01:33:27;97816.69;;;2.53;100.00
36630;BME280;36256;42.154;23.002;2024-01-25T01:35:54;97824.63;;;2.61;100.00
36630;BME280;36256;42.154;23.002;2024-01-25T01:38:21;97809.97;;;2.64;100.00
36630;BME280;36256;42.154;23.002;2024-01-25T01:40:47;97808.84;;;2.72;100.00
36630;BME280;36256;42.154;23.002;2024-01-25T01:43:18;97817.50;;;2.60;100.00
36630;BME280;36256;42.154;23.002;2024-01-25T01:45:46;97821.38;;;2.45;100.00
36630;BME280;36256;42.154;23.002;2024-01-25T01:48:13;97823.03;;;2.53;100.00
36630;BME280;36256;42.154;23.002;2024-01-25T01:50:43;97822.22;;;2.56;100.00
36630;BME280;36256;42.154;23.002;2024-01-25T01:53:11;97825.81;;;2.60;100.00
36630;BME280;36256;42.154;23.002;2024-01-25T01:55:38;97816.75;;;2.70;100.00
36630;BME280;36256;42.154;23.002;2024-01-25T01:58:06;97831.03;;;2.72;100.00
36630;BME280;36256;42.154;23.002;2024-01-25T02:00:33;97804.84;;;2.59;100.00
36630;BME280;36256;42.154;23.002;2024-01-25T02:03:00;97797.34;;;2.63;100.00
36630;BME280;36256;42.154;23.002;2024-01-25T02:05:28;97829.31;;;2.50;100.00
36630;BME280;36256;42.154;23.002;2024-01-25T02:07:55;97808.81;;;2.65;100.00
36630;BME280;36256;42.154;23.002;2024-01-25T02:10:22;97796.16;;;2.71;100.00
36630;BME280;36256;42.154;23.002;2024-01-25T02:12:48;97797.78;;;2.76;100.00
36630;BME280;36256;42.154;23.002;2024-01-25T02:15:15;97775.59;;;2.76;100.00
36630;BME280;36256;42.154;23.002;2024-01-25T02:17:42;97789.13;;;2.95;100.00
36630;BME280;36256;42.154;23.002;2024-01-25T02:20:09;97783.13;;;2.75;100.00
36630;BME280;36256;42.154;23.002;2024-01-25T02:22:37;97789.09;;;2.81;100.00
36630;BME280;36256;42.154;23.002;2024-01-25T02:25:04;97782.34;;;2.82;100.00
36630;BME280;36256;42.154;23.002;2024-01-25T02:27:30;97772.47;;;2.81;100.00
36630;BME280;36256;42.154;23.002;2024-01-25T02:29:57;97789.84;;;2.74;100.00
36630;BME280;36256;42.154;23.002;2024-01-25T02:32:24;97804.06;;;2.69;100.00
36630;BME280;36256;42.154;23.002;2024-01-25T02:34:51;97804.13;;;2.76;100.00
36630;BME280;36256;42.154;23.002;2024-01-25T02:37:17;97797.78;;;2.79;100.00
36630;BME280;36256;42.154;23.002;2024-01-25T02:39:44;97792.97;;;2.62;100.00
36630;BME280;36256;42.154;23.002;2024-01-25T02:42:12;97779.47;;;2.54;100.00
36630;BME280;36256;42.154;23.002;2024-01-25T02:44:39;97788.19;;;2.52;100.00
36630;BME280;36256;42.154;23.002;2024-01-25T02:47:06;97792.19;;;2.65;100.00
36630;BME280;36256;42.154;23.002;2024-01-25T02:49:33;97781.91;;;2.73;100.00
36630;BME280;36256;42.154;23.002;2024-01-25T02:52:00;97777.59;;;2.82;100.00
36630;BME280;36256;42.154;23.002;2024-01-25T02:54:27;97763.75;;;2.82;100.00
36630;BME280;36256;42.154;23.002;2024-01-25T02:56:54;97762.84;;;2.50;100.00
36630;BME280;36256;42.154;23.002;2024-01-25T02:59:21;97759.28;;;2.46;100.00
36630;BME280;36256;42.154;23.002;2024-01-25T03:01:48;97752.56;;;2.47;100.00
36630;BME280;36256;42.154;23.002;2024-01-25T03:04:15;97746.63;;;2.52;100.00
36630;BME280;36256;42.154;23.002;2024-01-25T03:06:42;97745.47;;;2.53;100.00
36630;BME280;36256;42.154;23.002;2024-01-25T03:09:10;97758.16;;;2.61;100.00
36630;BME280;36256;42.154;23.002;2024-01-25T03:11:36;97740.28;;;2.48;100.00
36630;BME280;36256;42.154;23.002;2024-01-25T03:14:03;97756.13;;;2.51;100.00
36630;BME280;36256;42.154;23.002;2024-01-25T03:16:30;97755.78;;;2.67;100.00
36630;BME280;36256;42.154;23.002;2024-01-25T03:18:57;97752.59;;;2.68;100.00
36630;BME280;36256;42.154;23.002;2024-01-25T03:21:23;97745.50;;;2.67;100.00
36630;BME280;36256;42.154;23.002;2024-01-25T03:23:51;97750.19;;;2.56;100.00
36630;BME280;36256;42.154;23.002;2024-01-25T03:26:18;97765.22;;;2.52;100.00
36630;BME280;36256;42.154;23.002;2024-01-25T03:28:44;97774.72;;;2.54;100.00
36630;BME280;36256;42.154;23.002;2024-01-25T03:31:11;97775.53;;;2.58;100.00
36630;BME280;36256;42.154;23.002;2024-01-25T03:33:38;97772.75;;;2.58;100.00
36630;BME280;36256;42.154;23.002;2024-01-25T03:36:05;97749.41;;;2.56;100.00
36630;BME280;36256;42.154;23.002;2024-01-25T03:38:32;97748.22;;;2.60;100.00
36630;BME280;36256;42.154;23.002;2024-01-25T03:40:59;97746.28;;;2.71;100.00
36630;BME280;36256;42.154;23.002;2024-01-25T03:43:26;97741.56;;;2.79;100.00
36630;BME280;36256;42.154;23.002;2024-01-25T03:46:07;97733.63;;;2.70;100.00
36630;BME280;36256;42.154;23.002;2024-01-25T03:48:34;97733.63;;;2.70;100.00
36630;BME280;36256;42.154;23.002;2024-01-25T03:51:01;97726.50;;;2.69;100.00
36630;BME280;36256;42.154;23.002;2024-01-25T03:53:27;97732.06;;;2.80;100.00
36630;BME280;36256;42.154;23.002;2024-01-25T03:55:54;97735.63;;;2.80;100.00
36630;BME280;36256;42.154;23.002;2024-01-25T03:58:21;97722.59;;;2.81;100.00
36630;BME280;36256;42.154;23.002;2024-01-25T04:00:47;97717.03;;;2.88;100.00
36630;BME280;36256;42.154;23.002;2024-01-25T04:03:14;97717.81;;;2.81;100.00
36630;BME280;36256;42.154;23.002;2024-01-25T04:05:41;97719.81;;;2.84;100.00
36630;BME280;36256;42.154;23.002;2024-01-25T04:08:08;97710.66;;;2.77;100.00
36630;BME280;36256;42.154;23.002;2024-01-25T04:10:35;97713.47;;;2.80;100.00
36630;BME280;36256;42.154;23.002;2024-01-25T04:13:02;97711.88;;;2.86;100.00
36630;BME280;36256;42.154;23.002;2024-01-25T04:15:31;97708.31;;;2.82;100.00
36630;BME280;36256;42.154;23.002;2024-01-25T04:17:58;97724.19;;;2.89;100.00
36630;BME280;36256;42.154;23.002;2024-01-25T04:20:25;97718.22;;;2.80;100.00
36630;BME280;36256;42.154;23.002;2024-01-25T04:22:52;97713.47;;;2.80;100.00
36630;BME280;36256;42.154;23.002;2024-01-25T04:25:19;97705.09;;;2.59;100.00
36630;BME280;36256;42.154;23.002;2024-01-25T04:27:46;97725.66;;;2.58;100.00
36630;BME280;36256;42.154;23.002;2024-01-25T04:30:12;97712.22;;;2.60;100.00
36630;BME280;36256;42.154;23.002;2024-01-25T04:32:40;97686.03;;;2.26;100.00
36630;BME280;36256;42.154;23.002;2024-01-25T04:35:08;97706.53;;;2.11;100.00
36630;BME280;36256;42.154;23.002;2024-01-25T04:37:35;97706.53;;;2.11;100.00
36630;BME280;36256;42.154;23.002;2024-01-25T04:40:03;97706.56;;;2.25;100.00
36630;BME280;36256;42.154;23.002;2024-01-25T04:42:30;97718.00;;;2.16;100.00
36630;BME280;36256;42.154;23.002;2024-01-25T04:44:56;97690.75;;;2.25;100.00
36630;BME280;36256;42.154;23.002;2024-01-25T04:47:23;97702.63;;;2.26;100.00
36630;BME280;36256;42.154;23.002;2024-01-25T04:49:50;97724.78;;;2.26;100.00
36630;BME280;36256;42.154;23.002;2024-01-25T04:52:17;97734.66;;;2.30;100.00
36630;BME280;36256;42.154;23.002;2024-01-25T04:54:44;97755.59;;;2.24;100.00
36630;BME280;36256;42.154;23.002;2024-01-25T04:57:11;97727.91;;;2.17;100.00
36630;BME280;36256;42.154;23.002;2024-01-25T04:59:37;97753.28;;;2.37;100.00
36630;BME280;36256;42.154;23.002;2024-01-25T05:02:04;97761.19;;;2.35;100.00
36630;BME280;36256;42.154;23.002;2024-01-25T05:04:31;97745.38;;;2.32;100.00
36630;BME280;36256;42.154;23.002;2024-01-25T05:06:58;97745.38;;;2.32;100.00
36630;BME280;36256;42.154;23.002;2024-01-25T05:09:25;97742.97;;;2.27;100.00
36630;BME280;36256;42.154;23.002;2024-01-25T05:11:51;97741.41;;;2.26;100.00
36630;BME280;36256;42.154;23.002;2024-01-25T05:14:18;97758.00;;;2.26;100.00
36630;BME280;36256;42.154;23.002;2024-01-25T05:16:45;97761.59;;;2.30;100.00
36630;BME280;36256;42.154;23.002;2024-01-25T05:19:12;97750.88;;;2.25;100.00
36630;BME280;36256;42.154;23.002;2024-01-25T05:21:38;97755.66;;;2.35;100.00
36630;BME280;36256;42.154;23.002;2024-01-25T05:24:05;97743.81;;;2.45;100.00
36630;BME280;36256;42.154;23.002;2024-01-25T05:26:33;97753.31;;;2.44;100.00
36630;BME280;36256;42.154;23.002;2024-01-25T05:28:59;97750.19;;;2.56;100.00
36630;BME280;36256;42.154;23.002;2024-01-25T05:31:26;97755.75;;;2.53;100.00
36630;BME280;36256;42.154;23.002;2024-01-25T05:33:53;97762.06;;;2.57;100.00
36630;BME280;36256;42.154;23.002;2024-01-25T05:36:20;97763.66;;;2.54;100.00
36630;BME280;36256;42.154;23.002;2024-01-25T05:38:47;97754.16;;;2.55;100.00
36630;BME280;36256;42.154;23.002;2024-01-25T05:41:13;97750.19;;;2.49;100.00
36630;BME280;36256;42.154;23.002;2024-01-25T05:43:40;97735.53;;;2.49;100.00
36630;BME280;36256;42.154;23.002;2024-01-25T05:46:07;97766.81;;;2.56;100.00
36630;BME280;36256;42.154;23.002;2024-01-25T05:48:36;97754.97;;;2.63;100.00
36630;BME280;36256;42.154;23.002;2024-01-25T05:51:03;97751.03;;;2.67;100.00
36630;BME280;36256;42.154;23.002;2024-01-25T05:53:29;97757.38;;;2.68;100.00
36630;BME280;36256;42.154;23.002;2024-01-25T05:55:56;97744.72;;;2.70;100.00
36630;BME280;36256;42.154;23.002;2024-01-25T05:58:23;97750.25;;;2.70;100.00
36630;BME280;36256;42.154;23.002;2024-01-25T06:00:50;97759.78;;;2.76;100.00
36630;BME280;36256;42.154;23.002;2024-01-25T06:03:16;97763.72;;;2.75;100.00
36630;BME280;36256;42.154;23.002;2024-01-25T06:05:43;97767.69;;;2.78;100.00
36630;BME280;36256;42.154;23.002;2024-01-25T06:08:10;97766.84;;;2.63;100.00
36630;BME280;36256;42.154;23.002;2024-01-25T06:10:37;97778.72;;;2.60;100.00
36630;BME280;36256;42.154;23.002;2024-01-25T06:13:04;97780.31;;;2.65;100.00
36630;BME280;36256;42.154;23.002;2024-01-25T06:15:30;97783.50;;;2.70;100.00
36630;BME280;36256;42.154;23.002;2024-01-25T06:17:58;97790.66;;;2.78;100.00
36630;BME280;36256;42.154;23.002;2024-01-25T06:20:25;97779.19;;;2.76;100.00
36630;BME280;36256;42.154;23.002;2024-01-25T06:22:52;97795.00;;;2.79;100.00
36630;BME280;36256;42.154;23.002;2024-01-25T06:25:18;97789.91;;;2.85;100.00
36630;BME280;36256;42.154;23.002;2024-01-25T06:27:45;97788.25;;;2.73;100.00
36630;BME280;36256;42.154;23.002;2024-01-25T06:30:12;97801.72;;;2.68;100.00
36630;BME280;36256;42.154;23.002;2024-01-25T06:32:39;97795.72;;;2.62;100.00
36630;BME280;36256;42.154;23.002;2024-01-25T06:35:06;97779.06;;;2.48;100.00
36630;BME280;36256;42.154;23.002;2024-01-25T06:37:33;97791.34;;;2.47;100.00
36630;BME280;36256;42.154;23.002;2024-01-25T06:40:00;97781.03;;;2.44;100.00
36630;BME280;36256;42.154;23.002;2024-01-25T06:42:27;97779.06;;;2.48;100.00
36630;BME280;36256;42.154;23.002;2024-01-25T06:44:53;97798.50;;;2.62;100.00
36630;BME280;36256;42.154;23.002;2024-01-25T06:47:20;97800.09;;;2.63;100.00
36630;BME280;36256;42.154;23.002;2024-01-25T06:49:49;97799.72;;;2.65;100.00
36630;BME280;36256;42.154;23.002;2024-01-25T06:52:18;97792.22;;;2.72;100.00
36630;BME280;36256;42.154;23.002;2024-01-25T06:54:45;97786.28;;;2.77;100.00
36630;BME280;36256;42.154;23.002;2024-01-25T06:57:12;97788.63;;;2.68;100.00
36630;BME280;36256;42.154;23.002;2024-01-25T06:59:40;97790.56;;;2.54;100.00
36630;BME280;36256;42.154;23.002;2024-01-25T07:02:08;97790.19;;;2.55;100.00
36630;BME280;36256;42.154;23.002;2024-01-25T07:04:36;97781.81;;;2.48;100.00
36630;BME280;36256;42.154;23.002;2024-01-25T07:07:05;97797.28;;;2.56;100.00
36630;BME280;36256;42.154;23.002;2024-01-25T07:09:32;97783.88;;;2.65;100.00
36630;BME280;36256;42.154;23.002;2024-01-25T07:11:59;97793.00;;;2.69;100.00
36630;BME280;36256;42.154;23.002;2024-01-25T07:14:25;97806.53;;;2.85;100.00
36630;BME280;36256;42.154;23.002;2024-01-25T07:16:52;97807.31;;;2.92;100.00
36630;BME280;36256;42.154;23.002;2024-01-25T07:19:19;97803.38;;;2.93;100.00
36630;BME280;36256;42.154;23.002;2024-01-25T07:21:46;97815.66;;;2.99;100.00
36630;BME280;36256;42.154;23.002;2024-01-25T07:24:12;97808.94;;;3.00;100.00
36630;BME280;36256;42.154;23.002;2024-01-25T07:26:39;97812.88;;;2.92;100.00
36630;BME280;36256;42.154;23.002;2024-01-25T07:29:06;97815.25;;;2.94;100.00
36630;BME280;36256;42.154;23.002;2024-01-25T07:31:33;97819.97;;;2.86;100.00
36630;BME280;36256;42.154;23.002;2024-01-25T07:33:59;97809.63;;;2.69;100.00
36630;BME280;36256;42.154;23.002;2024-01-25T07:36:26;97809.66;;;2.76;100.00
36630;BME280;36256;42.154;23.002;2024-01-25T07:38:53;97803.34;;;2.86;100.00
36630;BME280;36256;42.154;23.002;2024-01-25T07:41:20;97810.47;;;2.80;100.00
36630;BME280;36256;42.154;23.002;2024-01-25T07:43:47;97818.38;;;2.78;100.00
36630;BME280;36256;42.154;23.002;2024-01-25T07:46:13;97820.75;;;2.83;100.00
36630;BME280;36256;42.154;23.002;2024-01-25T07:48:42;97808.91;;;2.86;100.00
36630;BME280;36256;42.154;23.002;2024-01-25T07:51:13;97802.56;;;3.00;100.00
36630;BME280;36256;42.154;23.002;2024-01-25T07:53:40;97799.44;;;3.05;100.00
36630;BME280;36256;42.154;23.002;2024-01-25T07:56:07;97812.94;;;3.28;100.00
36630;BME280;36256;42.154;23.002;2024-01-25T07:58:35;97804.28;;;3.50;100.00
36630;BME280;36256;42.154;23.002;2024-01-25T08:01:04;97816.16;;;3.68;100.00
36630;BME280;36256;42.154;23.002;2024-01-25T08:03:32;97814.19;;;3.69;100.00
36630;BME280;36256;42.154;23.002;2024-01-25T08:06:01;97814.56;;;3.43;100.00
36630;BME280;36256;42.154;23.002;2024-01-25T08:08:29;97814.56;;;3.36;100.00
36630;BME280;36256;42.154;23.002;2024-01-25T08:10:56;97809.78;;;3.29;100.00
36630;BME280;36256;42.154;23.002;2024-01-25T08:13:22;97803.44;;;3.29;100.00
36630;BME280;36256;42.154;23.002;2024-01-25T08:15:51;97793.13;;;3.22;100.00
36630;BME280;36256;42.154;23.002;2024-01-25T08:18:17;97777.28;;;3.30;100.00
36630;BME280;36256;42.154;23.002;2024-01-25T08:20:46;97780.44;;;3.32;100.00
36630;BME280;36256;42.154;23.002;2024-01-25T08:23:13;97805.84;;;3.48;100.00
36630;BME280;36256;42.154;23.002;2024-01-25T08:25:41;97802.66;;;3.63;100.00
36630;BME280;36256;42.154;23.002;2024-01-25T08:28:08;97813.78;;;3.74;100.00
36630;BME280;36256;42.154;23.002;2024-01-25T08:30:35;97811.41;;;3.83;100.00
36630;BME280;36256;42.154;23.002;2024-01-25T08:33:02;97816.16;;;3.86;100.00
36630;BME280;36256;42.154;23.002;2024-01-25T08:35:30;97815.38;;;3.85;100.00
36630;BME280;36256;42.154;23.002;2024-01-25T08:37:58;97807.44;;;3.73;100.00
36630;BME280;36256;42.154;23.002;2024-01-25T08:40:25;97811.41;;;3.69;100.00
36630;BME280;36256;42.154;23.002;2024-01-25T08:42:55;97803.09;;;3.69;100.00
36630;BME280;36256;42.154;23.002;2024-01-25T08:45:22;97795.53;;;3.66;100.00
36630;BME280;36256;42.154;23.002;2024-01-25T08:47:49;97797.13;;;3.77;100.00
36630;BME280;36256;42.154;23.002;2024-01-25T08:50:18;97761.84;;;3.71;100.00
36630;BME280;36256;42.154;23.002;2024-01-25T08:52:45;97798.72;;;3.92;100.00
36630;BME280;36256;42.154;23.002;2024-01-25T08:55:11;97793.13;;;4.17;100.00
36630;BME280;36256;42.154;23.002;2024-01-25T08:57:38;97785.84;;;4.58;100.00
36630;BME280;36256;42.154;23.002;2024-01-25T09:00:06;97814.00;;;4.67;100.00
36630;BME280;36256;42.154;23.002;2024-01-25T09:02:37;97808.03;;;4.69;100.00
36630;BME280;36256;42.154;23.002;2024-01-25T09:05:07;97811.66;;;4.62;100.00
36630;BME280;36256;42.154;23.002;2024-01-25T09:07:35;97809.59;;;4.73;100.00
36630;BME280;36256;42.154;23.002;2024-01-25T09:10:02;97817.84;;;5.02;100.00
36630;BME280;36256;42.154;23.002;2024-01-25T09:12:31;97791.84;;;5.26;100.00
36630;BME280;36256;42.154;23.002;2024-01-25T09:14:58;97791.09;;;5.22;99.84
36630;BME280;36256;42.154;23.002;2024-01-25T09:17:25;97787.28;;;4.91;100.00
36630;BME280;36256;42.154;23.002;2024-01-25T09:19:51;97797.59;;;4.98;100.00
36630;BME280;36256;42.154;23.002;2024-01-25T09:22:19;97785.00;;;4.72;100.00
36630;BME280;36256;42.154;23.002;2024-01-25T09:24:46;97772.00;;;4.44;100.00
36630;BME280;36256;42.154;23.002;2024-01-25T09:27:14;97787.47;;;4.49;100.00
36630;BME280;36256;42.154;23.002;2024-01-25T09:29:41;97789.03;;;4.50;100.00
36630;BME280;36256;42.154;23.002;2024-01-25T09:32:09;97758.88;;;4.55;100.00
36630;BME280;36256;42.154;23.002;2024-01-25T09:34:36;97775.31;;;5.01;100.00
36630;BME280;36256;42.154;23.002;2024-01-25T09:37:06;97789.13;;;5.19;100.00
36630;BME280;36256;42.154;23.002;2024-01-25T09:39:34;97781.50;;;5.30;100.00
36630;BME280;36256;42.154;23.002;2024-01-25T09:42:03;97787.50;;;5.25;100.00
36630;BME280;36256;42.154;23.002;2024-01-25T09:44:31;97783.66;;;5.05;100.00
36630;BME280;36256;42.154;23.002;2024-01-25T09:46:58;97785.75;;;4.79;100.00
36630;BME280;36256;42.154;23.002;2024-01-25T09:49:27;97784.19;;;4.71;100.00
36630;BME280;36256;42.154;23.002;2024-01-25T09:51:54;97784.97;;;4.75;100.00
36630;BME280;36256;42.154;23.002;2024-01-25T09:54:22;97770.63;;;4.84;100.00
36630;BME280;36256;42.154;23.002;2024-01-25T09:56:50;97769.03;;;4.87;100.00
36630;BME280;36256;42.154;23.002;2024-01-25T09:59:17;97770.94;;;5.04;100.00
36630;BME280;36256;42.154;23.002;2024-01-25T10:01:46;97765.41;;;4.97;100.00
36630;BME280;36256;42.154;23.002;2024-01-25T10:04:13;97760.97;;;5.10;100.00
36630;BME280;36256;42.154;23.002;2024-01-25T10:06:40;97749.03;;;5.13;100.00
36630;BME280;36256;42.154;23.002;2024-01-25T10:09:06;97734.69;;;5.18;100.00
36630;BME280;36256;42.154;23.002;2024-01-25T10:11:38;97730.25;;;5.27;100.00
36630;BME280;36256;42.154;23.002;2024-01-25T10:14:12;97722.53;;;5.45;100.00
36630;BME280;36256;42.154;23.002;2024-01-25T10:16:39;97717.00;;;5.42;100.00
36630;BME280;36256;42.154;23.002;2024-01-25T10:19:07;97717.41;;;5.44;100.00
36630;BME280;36256;42.154;23.002;2024-01-25T10:21:36;97688.44;;;5.34;100.00
36630;BME280;36256;42.154;23.002;2024-01-25T10:24:07;97691.47;;;5.54;100.00
36630;BME280;36256;42.154;23.002;2024-01-25T10:26:34;97695.41;;;5.56;100.00
36630;BME280;36256;42.154;23.002;2024-01-25T10:29:01;97695.06;;;5.51;100.00
36630;BME280;36256;42.154;23.002;2024-01-25T10:31:31;97698.53;;;5.62;100.00
36630;BME280;36256;42.154;23.002;2024-01-25T10:33:59;97676.91;;;5.77;100.00
36630;BME280;36256;42.154;23.002;2024-01-25T10:36:27;97681.25;;;5.85;100.00
36630;BME280;36256;42.154;23.002;2024-01-25T10:38:54;97668.47;;;5.91;100.00
36630;BME280;36256;42.154;23.002;2024-01-25T10:41:24;97659.88;;;5.71;100.00
36630;BME280;36256;42.154;23.002;2024-01-25T10:43:54;97664.13;;;5.86;100.00
36630;BME280;36256;42.154;23.002;2024-01-25T10:46:21;97666.31;;;6.05;100.00
36630;BME280;36256;42.154;23.002;2024-01-25T10:48:49;97651.50;;;6.12;100.00
36630;BME280;36256;42.154;23.002;2024-01-25T10:51:17;97652.44;;;6.32;100.00
36630;BME280;36256;42.154;23.002;2024-01-25T10:53:47;97649.34;;;6.26;100.00
36630;BME280;36256;42.154;23.002;2024-01-25T10:56:14;97648.03;;;6.34;100.00
36630;BME280;36256;42.154;23.002;2024-01-25T10:58:41;97632.41;;;6.41;100.00
36630;BME280;36256;42.154;23.002;2024-01-25T11:01:11;97650.69;;;6.45;99.94
36630;BME280;36256;42.154;23.002;2024-01-25T11:03:42;97640.13;;;6.29;100.00
36630;BME280;36256;42.154;23.002;2024-01-25T11:06:12;97646.72;;;6.43;100.00
36630;BME280;36256;42.154;23.002;2024-01-25T11:08:40;97635.13;;;6.48;99.08
36630;BME280;36256;42.154;23.002;2024-01-25T11:11:08;97633.88;;;6.52;98.76
36630;BME280;36256;42.154;23.002;2024-01-25T11:13:41;97631.09;;;6.49;99.08
36630;BME280;36256;42.154;23.002;2024-01-25T11:18:54;97628.31;;;6.49;99.37
36630;BME280;36256;42.154;23.002;2024-01-25T11:21:41;97628.19;;;6.59;100.00
36630;BME280;36256;42.154;23.002;2024-01-25T11:24:22;97616.78;;;6.77;98.86
36630;BME280;36256;42.154;23.002;2024-01-25T11:26:49;97600.50;;;6.72;98.33
36630;BME280;36256;42.154;23.002;2024-01-25T11:29:17;97626.50;;;6.92;97.56
36630;BME280;36256;42.154;23.002;2024-01-25T11:31:45;97618.59;;;6.87;97.19
36630;BME280;36256;42.154;23.002;2024-01-25T11:34:12;97615.41;;;6.62;97.51
36630;BME280;36256;42.154;23.002;2024-01-25T11:36:39;97602.41;;;6.52;98.44
36630;BME280;36256;42.154;23.002;2024-01-25T11:39:06;97592.34;;;6.58;98.27
36630;BME280;36256;42.154;23.002;2024-01-25T11:41:33;97611.41;;;6.63;97.75
36630;BME280;36256;42.154;23.002;2024-01-25T11:44:01;97604.03;;;6.76;98.75
36630;BME280;36256;42.154;23.002;2024-01-25T11:46:30;97611.09;;;6.84;98.19
36630;BME280;36256;42.154;23.002;2024-01-25T11:48:58;97615.72;;;6.94;97.90
36630;BME280;36256;42.154;23.002;2024-01-25T11:51:25;97621.66;;;6.96;98.29
36630;BME280;36256;42.154;23.002;2024-01-25T11:53:51;97621.13;;;7.04;96.35
36630;BME280;36256;42.154;23.002;2024-01-25T11:56:29;97623.56;;;7.02;96.64
36630;BME280;36256;42.154;23.002;2024-01-25T11:58:58;97611.53;;;7.05;95.92
36630;BME280;36256;42.154;23.002;2024-01-25T12:01:25;97610.63;;;7.12;96.63
36630;BME280;36256;42.154;23.002;2024-01-25T12:03:53;97603.47;;;7.11;96.57
36630;BME280;36256;42.154;23.002;2024-01-25T12:06:20;97604.31;;;7.08;96.69
36630;BME280;36256;42.154;23.002;2024-01-25T12:08:47;97603.13;;;7.09;96.66
36630;BME280;36256;42.154;23.002;2024-01-25T12:11:15;97586.91;;;7.00;97.32
36630;BME280;36256;42.154;23.002;2024-01-25T12:13:42;97608.94;;;7.18;97.65
36630;BME280;36256;42.154;23.002;2024-01-25T12:16:11;97596.81;;;7.05;98.10
36630;BME280;36256;42.154;23.002;2024-01-25T12:18:39;97592.44;;;7.04;97.71
36630;BME280;36256;42.154;23.002;2024-01-25T12:21:07;97583.06;;;6.91;99.34
36630;BME280;36256;42.154;23.002;2024-01-25T12:23:35;97576.38;;;6.88;99.48
36630;BME280;36256;42.154;23.002;2024-01-25T12:26:06;97583.06;;;6.91;100.00
36630;BME280;36256;42.154;23.002;2024-01-25T12:28:34;97570.38;;;6.86;100.00
36630;BME280;36256;42.154;23.002;2024-01-25T12:31:05;97565.75;;;7.03;100.00
36630;BME280;36256;42.154;23.002;2024-01-25T12:33:33;97568.03;;;7.08;99.95
36630;BME280;36256;42.154;23.002;2024-01-25T12:36:02;97565.88;;;7.19;98.59
36630;BME280;36256;42.154;23.002;2024-01-25T12:38:30;97568.84;;;7.32;97.85
36630;BME280;36256;42.154;23.002;2024-01-25T12:41:01;97565.31;;;7.28;97.16
36630;BME280;36256;42.154;23.002;2024-01-25T12:43:29;97565.97;;;7.35;96.20
36630;BME280;36256;42.154;23.002;2024-01-25T12:45:57;97552.81;;;7.36;95.10
36630;BME280;36256;42.154;23.002;2024-01-25T12:48:42;97556.28;;;7.43;96.81
36630;BME280;36256;42.154;23.002;2024-01-25T12:51:10;97549.34;;;7.51;97.04
36630;BME280;36256;42.154;23.002;2024-01-25T12:53:37;97545.19;;;7.59;95.95